createdAt,value
2022-12-20T00:01:51.279Z,101376.34
2022-12-20T00:04:18.802Z,101376.56
2022-12-20T00:06:46.404Z,101378.63
2022-12-20T00:09:15.219Z,101375.50
2022-12-20T00:11:44.275Z,101374.66
2022-12-20T00:14:12.040Z,101373.56
2022-12-20T00:16:39.722Z,101379.88
2022-12-20T00:19:08.819Z,101375.22
2022-12-20T00:21:36.986Z,101381.91
2022-12-20T00:24:05.316Z,101385.47
2022-12-20T00:26:35.702Z,101383.34
2022-12-20T00:29:03.144Z,101374.78
2022-12-20T00:31:31.640Z,101367.16
2022-12-20T00:34:00.247Z,101357.81
2022-12-20T00:36:30.077Z,101347.69
2022-12-20T00:39:00.245Z,101348.69
2022-12-20T00:41:29.162Z,101351.28
2022-12-20T00:43:58.420Z,101350.53
2022-12-20T00:46:26.988Z,101358.50
2022-12-20T00:48:55.278Z,101363.81
2022-12-20T00:51:24.999Z,101353.94
2022-12-20T00:53:53.561Z,101348.91
2022-12-20T00:56:21.296Z,101349.97
2022-12-20T00:58:49.162Z,101360.47
2022-12-20T01:01:21.498Z,101357.63
2022-12-20T01:03:49.557Z,101351.41
2022-12-20T01:06:17.661Z,101354.22
2022-12-20T01:08:45.113Z,101365.97
2022-12-20T01:11:14.893Z,101363.78
2022-12-20T01:13:44.866Z,101364.97
2022-12-20T01:16:15.192Z,101361.22
2022-12-20T01:18:44.172Z,101359.91
2022-12-20T01:21:14.459Z,101357.16
2022-12-20T01:23:42.428Z,101351.09
2022-12-20T01:26:13.095Z,101354.34
2022-12-20T01:28:42.549Z,101364.81
2022-12-20T01:31:12.686Z,101355.09
2022-12-20T01:33:40.939Z,101352.72
2022-12-20T01:36:14.706Z,101366.19
2022-12-20T01:38:42.332Z,101353.59
2022-12-20T01:41:15.540Z,101348.16
2022-12-20T01:43:49.168Z,101339.25
2022-12-20T01:46:17.319Z,101334.38
2022-12-20T01:48:49.481Z,101339.50
2022-12-20T01:51:19.433Z,101346.56
2022-12-20T01:53:47.965Z,101335.16
2022-12-20T01:56:15.712Z,101336.47
2022-12-20T01:58:43.451Z,101348.53
2022-12-20T02:01:11.002Z,101337.78
2022-12-20T02:03:39.955Z,101337.22
2022-12-20T02:06:20.264Z,101331.91
2022-12-20T02:08:49.281Z,101329.66
2022-12-20T02:11:33.186Z,101337.81
2022-12-20T02:14:11.658Z,101325.31
2022-12-20T02:16:47.910Z,101343.78
2022-12-20T02:19:42.583Z,101333.84
2022-12-20T02:22:23.885Z,101339.22
2022-12-20T02:25:22.923Z,101336.69
2022-12-20T02:27:58.550Z,101330.69
2022-12-20T02:30:33.532Z,101337.00
2022-12-20T02:33:04.089Z,101337.44
2022-12-20T02:35:35.031Z,101335.91
2022-12-20T02:38:05.073Z,101342.00
2022-12-20T02:40:38.994Z,101328.28
2022-12-20T02:43:35.402Z,101324.94
2022-12-20T02:46:04.143Z,101316.75
2022-12-20T02:48:35.487Z,101309.78
2022-12-20T02:51:06.537Z,101304.78
2022-12-20T02:53:35.018Z,101303.34
2022-12-20T02:56:10.442Z,101298.84
2022-12-20T02:58:43.241Z,101297.66
2022-12-20T03:01:18.335Z,101287.22
2022-12-20T03:03:46.504Z,101278.00
2022-12-20T03:06:14.100Z,101280.84
2022-12-20T03:08:41.556Z,101278.88
2022-12-20T03:11:08.987Z,101272.88
2022-12-20T03:13:36.420Z,101268.78
2022-12-20T03:16:04.868Z,101268.38
2022-12-20T03:18:33.708Z,101266.72
2022-12-20T03:21:01.160Z,101271.00
2022-12-20T03:23:28.607Z,101254.56
2022-12-20T03:25:56.381Z,101271.06
2022-12-20T03:28:23.997Z,101280.34
2022-12-20T03:30:51.445Z,101293.41
2022-12-20T03:33:18.843Z,101304.97
2022-12-20T03:35:48.215Z,101303.88
2022-12-20T03:38:15.666Z,101293.88
2022-12-20T03:40:43.109Z,101285.09
2022-12-20T03:43:10.514Z,101299.94
2022-12-20T03:45:37.939Z,101294.25
2022-12-20T03:48:05.355Z,101296.97
2022-12-20T03:50:32.800Z,101293.84
2022-12-20T03:53:01.761Z,101283.75
2022-12-20T03:55:29.320Z,101279.13
2022-12-20T03:57:56.972Z,101270.09
2022-12-20T04:00:24.518Z,101268.56
2022-12-20T04:02:52.344Z,101278.63
2022-12-20T04:05:21.239Z,101280.34
2022-12-20T04:07:48.701Z,101290.59
2022-12-20T04:10:17.554Z,101287.81
2022-12-20T04:12:45.007Z,101287.50
2022-12-20T04:15:12.449Z,101286.69
2022-12-20T04:17:40.006Z,101283.84
2022-12-20T04:20:19.645Z,101289.97
2022-12-20T04:22:47.227Z,101275.91
2022-12-20T04:25:15.049Z,101268.94
2022-12-20T04:27:43.805Z,101267.00
2022-12-20T04:30:12.573Z,101270.34
2022-12-20T04:32:40.151Z,101290.59
2022-12-20T04:35:08.458Z,101271.22
2022-12-20T04:37:35.896Z,101270.94
2022-12-20T04:40:03.301Z,101279.94
2022-12-20T04:42:30.752Z,101272.53
2022-12-20T04:44:59.590Z,101280.06
2022-12-20T04:47:27.031Z,101266.13
2022-12-20T04:49:54.453Z,101256.81
2022-12-20T04:52:43.609Z,101257.00
2022-12-20T04:55:15.018Z,101259.44
2022-12-20T04:57:42.476Z,101264.72
2022-12-20T05:00:12.625Z,101263.38
2022-12-20T05:02:40.120Z,101269.50
2022-12-20T05:05:08.472Z,101271.59
2022-12-20T05:07:35.907Z,101269.16
2022-12-20T05:10:03.356Z,101263.06
2022-12-20T05:12:30.784Z,101265.84
2022-12-20T05:14:58.247Z,101274.56
2022-12-20T05:17:26.989Z,101271.28
2022-12-20T05:19:54.420Z,101271.31
2022-12-20T05:22:39.340Z,101264.28
2022-12-20T05:25:24.672Z,101261.88
2022-12-20T05:27:52.091Z,101246.63
2022-12-20T05:30:20.156Z,101230.13
2022-12-20T05:32:49.174Z,101245.22
2022-12-20T05:35:16.679Z,101249.28
2022-12-20T05:37:44.217Z,101253.16
2022-12-20T05:40:12.374Z,101238.56
2022-12-20T05:42:40.221Z,101227.09
2022-12-20T05:45:08.222Z,101227.50
2022-12-20T05:47:35.633Z,101233.44
2022-12-20T05:50:05.045Z,101236.34
2022-12-20T05:52:33.164Z,101249.50
2022-12-20T05:55:00.626Z,101246.91
2022-12-20T05:57:28.607Z,101242.25
2022-12-20T05:59:56.123Z,101243.25
2022-12-20T06:02:23.808Z,101225.81
2022-12-20T06:04:51.342Z,101230.50
2022-12-20T06:07:20.464Z,101240.22
2022-12-20T06:09:47.875Z,101241.69
2022-12-20T06:12:15.381Z,101245.88
2022-12-20T06:14:42.887Z,101241.03
2022-12-20T06:17:12.012Z,101244.59
2022-12-20T06:19:41.478Z,101245.63
2022-12-20T06:22:09.544Z,101262.97
2022-12-20T06:24:44.291Z,101260.50
2022-12-20T06:27:15.549Z,101256.84
2022-12-20T06:29:49.486Z,101253.09
2022-12-20T06:32:16.888Z,101254.53
2022-12-20T06:34:45.230Z,101258.03
2022-12-20T06:37:12.848Z,101249.81
2022-12-20T06:39:41.674Z,101251.94
2022-12-20T06:42:09.244Z,101259.91
2022-12-20T06:44:36.747Z,101251.81
2022-12-20T06:47:04.868Z,101255.34
2022-12-20T06:49:32.358Z,101257.16
2022-12-20T06:51:59.793Z,101251.28
2022-12-20T06:54:27.280Z,101249.19
2022-12-20T06:56:56.095Z,101265.59
2022-12-20T06:59:23.584Z,101256.88
2022-12-20T07:01:53.526Z,101257.34
2022-12-20T07:04:21.356Z,101257.72
2022-12-20T07:06:48.857Z,101257.34
2022-12-20T07:09:16.409Z,101263.97
2022-12-20T07:11:44.280Z,101267.41
2022-12-20T07:14:13.197Z,101271.06
2022-12-20T07:16:41.622Z,101275.00
2022-12-20T07:19:11.907Z,101271.69
2022-12-20T07:21:39.482Z,101270.94
2022-12-20T07:24:07.951Z,101285.44
2022-12-20T07:26:35.804Z,101282.97
2022-12-20T07:29:03.536Z,101288.22
2022-12-20T07:31:32.345Z,101292.81
2022-12-20T07:34:00.014Z,101284.94
2022-12-20T07:36:27.612Z,101291.06
2022-12-20T07:38:55.136Z,101302.81
2022-12-20T07:41:22.799Z,101298.03
2022-12-20T07:43:50.285Z,101300.00
2022-12-20T07:46:18.800Z,101295.72
2022-12-20T07:48:47.627Z,101296.81
2022-12-20T07:51:18.753Z,101302.38
2022-12-20T07:53:49.736Z,101294.44
2022-12-20T07:56:19.425Z,101296.72
2022-12-20T07:58:46.963Z,101301.78
2022-12-20T08:01:14.910Z,101301.19
2022-12-20T08:03:47.146Z,101293.66
2022-12-20T08:06:17.000Z,101292.06
2022-12-20T08:08:48.843Z,101294.09
2022-12-20T08:11:17.493Z,101288.25
2022-12-20T08:13:46.736Z,101289.19
2022-12-20T08:16:15.018Z,101285.97
2022-12-20T08:18:42.498Z,101300.25
2022-12-20T08:21:10.736Z,101295.66
2022-12-20T08:23:39.473Z,101289.44
2022-12-20T08:26:07.057Z,101288.66
2022-12-20T08:28:35.401Z,101289.06
2022-12-20T08:31:03.236Z,101286.06
2022-12-20T08:33:31.028Z,101288.19
2022-12-20T08:35:59.525Z,101282.44
2022-12-20T08:38:28.817Z,101274.38
2022-12-20T08:40:58.022Z,101264.97
2022-12-20T08:43:25.458Z,101269.22
2022-12-20T08:45:55.257Z,101267.28
2022-12-20T08:48:23.534Z,101273.66
2022-12-20T08:50:55.603Z,101262.50
2022-12-20T08:53:23.600Z,101267.28
2022-12-20T08:55:51.046Z,101263.63
2022-12-20T08:58:20.264Z,101270.81
2022-12-20T09:00:48.191Z,101272.25
2022-12-20T09:03:15.761Z,101263.50
2022-12-20T09:05:47.549Z,101262.16
2022-12-20T09:08:15.878Z,101263.50
2022-12-20T09:10:43.571Z,101260.06
2022-12-20T09:13:11.806Z,101254.94
2022-12-20T09:15:40.856Z,101264.84
2022-12-20T09:18:08.307Z,101265.72
2022-12-20T09:20:35.766Z,101251.34
2022-12-20T09:23:03.692Z,101254.59
2022-12-20T09:25:31.223Z,101240.09
2022-12-20T09:27:58.781Z,101239.66
2022-12-20T09:30:26.299Z,101244.25
2022-12-20T09:32:57.035Z,101246.22
2022-12-20T09:35:38.140Z,101242.94
2022-12-20T09:38:05.995Z,101251.28
2022-12-20T09:40:33.663Z,101248.84
2022-12-20T09:43:01.323Z,101249.06
2022-12-20T09:45:31.263Z,101235.22
2022-12-20T09:48:00.175Z,101231.66
2022-12-20T09:50:41.043Z,101228.81
2022-12-20T09:53:20.958Z,101235.94
2022-12-20T09:55:54.847Z,101233.19
2022-12-20T09:58:37.942Z,101242.75
2022-12-20T10:01:22.970Z,101239.78
2022-12-20T10:03:54.894Z,101251.16
2022-12-20T10:06:34.826Z,101256.25
2022-12-20T10:09:05.146Z,101243.69
2022-12-20T10:11:51.177Z,101243.41
2022-12-20T10:14:34.687Z,101237.75
2022-12-20T10:17:06.213Z,101232.78
2022-12-20T10:19:57.645Z,101238.97
2022-12-20T10:22:30.061Z,101231.13
2022-12-20T10:25:02.883Z,101223.59
2022-12-20T10:27:30.489Z,101227.06
2022-12-20T10:29:58.245Z,101217.00
2022-12-20T10:32:26.951Z,101206.69
2022-12-20T10:35:00.277Z,101199.66
2022-12-20T10:37:27.839Z,101187.28
2022-12-20T10:39:55.426Z,101179.97
2022-12-20T10:42:27.410Z,101173.00
2022-12-20T10:44:56.977Z,101168.03
2022-12-20T10:47:34.875Z,101165.00
2022-12-20T10:50:14.546Z,101162.25
2022-12-20T10:52:42.320Z,101159.34
2022-12-20T10:55:36.019Z,101157.56
2022-12-20T10:58:12.923Z,101165.00
2022-12-20T11:00:41.454Z,101151.81
2022-12-20T11:03:15.746Z,101136.84
2022-12-20T11:05:56.380Z,101129.91
2022-12-20T11:08:51.229Z,101120.00
2022-12-20T11:11:17.225Z,101122.28
2022-12-20T11:13:46.115Z,101131.16
2022-12-20T11:16:25.389Z,101106.13
2022-12-20T11:19:03.126Z,101103.78
2022-12-20T11:21:43.132Z,101102.97
2022-12-20T11:24:15.381Z,101105.56
2022-12-20T11:26:58.737Z,101105.28
2022-12-20T11:29:50.144Z,101106.41
2022-12-20T11:32:30.055Z,101101.13
2022-12-20T11:35:09.356Z,101087.63
2022-12-20T11:37:47.320Z,101100.53
2022-12-20T11:40:28.084Z,101104.50
2022-12-20T11:43:07.765Z,101094.44
2022-12-20T11:45:44.079Z,101095.59
2022-12-20T11:48:28.045Z,101091.25
2022-12-20T11:51:04.209Z,101074.50
2022-12-20T11:53:40.430Z,101070.53
2022-12-20T11:56:17.026Z,101065.41
2022-12-20T11:58:52.849Z,101070.47
2022-12-20T12:01:24.276Z,101082.44
2022-12-20T12:04:06.613Z,101081.34
2022-12-20T12:06:36.995Z,101080.34
2022-12-20T12:09:22.134Z,101082.00
2022-12-20T12:12:06.843Z,101075.84
2022-12-20T12:14:55.659Z,101072.56
2022-12-20T12:17:33.676Z,101067.47
2022-12-20T12:20:16.660Z,101072.88
2022-12-20T12:22:46.848Z,101058.66
2022-12-20T12:25:19.331Z,101053.78
2022-12-20T12:27:46.929Z,101044.44
2022-12-20T12:30:16.072Z,101048.50
2022-12-20T12:32:50.808Z,101038.97
2022-12-20T12:35:46.800Z,101041.16
2022-12-20T12:38:34.009Z,101038.16
2022-12-20T12:41:41.848Z,101044.66
2022-12-20T12:44:33.570Z,101018.28
2022-12-20T12:47:06.285Z,101018.19
2022-12-20T12:49:35.000Z,101017.91
2022-12-20T12:52:05.868Z,101007.28
2022-12-20T12:54:38.525Z,101014.34
2022-12-20T12:57:13.577Z,101009.00
2022-12-20T12:59:43.869Z,101002.63
2022-12-20T13:02:37.118Z,101010.81
2022-12-20T13:05:34.417Z,101008.34
2022-12-20T13:08:01.885Z,101004.63
2022-12-20T13:11:09.056Z,101005.47
2022-12-20T13:13:37.829Z,101008.06
2022-12-20T13:16:11.332Z,101005.16
2022-12-20T13:18:38.904Z,101007.56
2022-12-20T13:21:37.233Z,101003.56
2022-12-20T13:24:40.331Z,101005.41
2022-12-20T13:27:22.636Z,101006.72
2022-12-20T13:30:02.448Z,101004.31
2022-12-20T13:32:56.759Z,101009.44
2022-12-20T13:35:33.623Z,101016.44
2022-12-20T13:38:04.717Z,101006.03
2022-12-20T13:40:37.561Z,101001.94
2022-12-20T13:43:13.098Z,101012.94
2022-12-20T13:45:46.666Z,100998.34
2022-12-20T13:48:18.558Z,100994.13
2022-12-20T13:50:52.297Z,100989.72
2022-12-20T13:53:21.426Z,101000.00
2022-12-20T13:55:50.160Z,100994.66
2022-12-20T13:58:20.593Z,100995.53
2022-12-20T14:00:50.663Z,101006.31
2022-12-20T14:03:25.207Z,101005.84
2022-12-20T14:05:58.326Z,101015.06
2022-12-20T14:08:30.004Z,100998.03
2022-12-20T14:11:08.629Z,100991.63
2022-12-20T14:13:36.034Z,100990.84
2022-12-20T14:16:15.554Z,100983.13
2022-12-20T14:18:44.363Z,100978.84
2022-12-20T14:21:12.002Z,100995.34
2022-12-20T14:23:41.878Z,100979.63
2022-12-20T14:26:13.877Z,100978.59
2022-12-20T14:28:44.319Z,100981.25
2022-12-20T14:31:26.398Z,100977.16
2022-12-20T14:34:04.022Z,100973.56
2022-12-20T14:36:31.781Z,100970.09
2022-12-20T14:38:59.276Z,100970.78
2022-12-20T14:41:31.952Z,100966.66
2022-12-20T14:44:03.966Z,100962.78
2022-12-20T14:46:33.007Z,100963.50
2022-12-20T14:49:18.199Z,100965.84
2022-12-20T14:51:46.640Z,100963.31
2022-12-20T14:54:47.734Z,100961.22
2022-12-20T14:57:12.667Z,100961.38
2022-12-20T14:59:40.280Z,100957.72
2022-12-20T15:02:35.538Z,100946.56
2022-12-20T15:05:26.024Z,100962.31
2022-12-20T15:07:53.489Z,100971.56
2022-12-20T15:10:20.877Z,100961.03
2022-12-20T15:12:48.451Z,100956.78
2022-12-20T15:15:31.464Z,100957.59
2022-12-20T15:18:00.240Z,100945.34
2022-12-20T15:20:27.752Z,100952.63
2022-12-20T15:22:55.260Z,100949.19
2022-12-20T15:25:22.782Z,100941.16
2022-12-20T15:27:50.308Z,100939.09
2022-12-20T15:30:18.666Z,100931.06
2022-12-20T15:32:55.241Z,100923.91
2022-12-20T15:35:25.689Z,100929.16
2022-12-20T15:37:53.112Z,100932.81
2022-12-20T15:40:20.744Z,100931.53
2022-12-20T15:42:48.293Z,100924.78
2022-12-20T15:45:16.264Z,100930.38
2022-12-20T15:47:43.736Z,100921.66
2022-12-20T15:50:13.685Z,100918.53
2022-12-20T15:52:44.271Z,100930.34
2022-12-20T15:55:12.374Z,100919.25
2022-12-20T15:57:39.785Z,100933.06
2022-12-20T16:00:10.908Z,100919.25
2022-12-20T16:02:38.659Z,100913.44
2022-12-20T16:05:06.810Z,100910.25
2022-12-20T16:07:34.268Z,100909.97
2022-12-20T16:10:03.198Z,100911.78
2022-12-20T16:12:34.151Z,100901.97
2022-12-20T16:15:01.707Z,100904.03
2022-12-20T16:17:29.181Z,100901.91
2022-12-20T16:19:56.670Z,100894.91
2022-12-20T16:22:26.105Z,100891.97
2022-12-20T16:24:53.563Z,100898.63
2022-12-20T16:27:22.691Z,100895.31
2022-12-20T16:29:50.162Z,100897.00
2022-12-20T16:32:19.591Z,100891.34
2022-12-20T16:34:47.209Z,100898.88
2022-12-20T16:37:14.927Z,100891.56
2022-12-20T16:39:43.179Z,100896.25
2022-12-20T16:42:14.587Z,100894.19
2022-12-20T16:44:45.266Z,100904.34
2022-12-20T16:47:14.159Z,100896.53
2022-12-20T16:49:45.780Z,100894.91
2022-12-20T16:52:19.442Z,100880.09
2022-12-20T16:54:46.967Z,100886.91
2022-12-20T16:57:14.531Z,100882.44
2022-12-20T16:59:43.363Z,100892.19
2022-12-20T17:02:24.449Z,100885.25
2022-12-20T17:04:52.207Z,100886.97
2022-12-20T17:07:19.639Z,100873.22
2022-12-20T17:12:32.177Z,100869.09
2022-12-20T17:15:00.898Z,100882.44
2022-12-20T17:17:28.306Z,100872.69
2022-12-20T17:19:55.744Z,100872.25
2022-12-20T17:25:19.272Z,100859.53
2022-12-20T17:27:46.728Z,100870.81
2022-12-20T17:30:15.999Z,100877.66
2022-12-20T17:32:43.482Z,100883.66
2022-12-20T17:35:20.659Z,100890.28
2022-12-20T17:37:48.264Z,100886.97
2022-12-20T17:40:16.825Z,100898.88
2022-12-20T17:42:44.411Z,100898.06
2022-12-20T17:45:26.400Z,100909.81
2022-12-20T17:47:54.929Z,100910.34
2022-12-20T17:50:22.915Z,100891.91
2022-12-20T17:52:50.373Z,100885.16
2022-12-20T17:55:20.740Z,100883.31
2022-12-20T17:57:48.412Z,100880.44
2022-12-20T18:00:25.333Z,100883.41
2022-12-20T18:02:53.858Z,100878.44
2022-12-20T18:05:22.584Z,100876.06
2022-12-20T18:07:51.611Z,100884.44
2022-12-20T18:10:19.136Z,100881.69
2022-12-20T18:12:47.048Z,100890.16
2022-12-20T18:15:15.288Z,100883.31
2022-12-20T18:17:44.466Z,100893.03
2022-12-20T18:20:12.939Z,100887.00
2022-12-20T18:22:40.635Z,100883.66
2022-12-20T18:25:08.702Z,100879.94
2022-12-20T18:27:40.521Z,100882.56
2022-12-20T18:30:13.475Z,100878.44
2022-12-20T18:32:41.408Z,100874.16
2022-12-20T18:35:11.100Z,100876.72
2022-12-20T18:37:38.532Z,100888.59
2022-12-20T18:40:07.438Z,100880.47
2022-12-20T18:42:34.935Z,100870.91
2022-12-20T18:45:02.401Z,100883.72
2022-12-20T18:47:32.244Z,100874.06
2022-12-20T18:49:59.866Z,100871.66
2022-12-20T18:52:28.636Z,100868.06
2022-12-20T18:54:56.646Z,100861.44
2022-12-20T18:57:24.106Z,100862.56
2022-12-20T18:59:51.630Z,100846.94
2022-12-20T19:02:19.294Z,100861.16
2022-12-20T19:04:46.863Z,100853.41
2022-12-20T19:07:15.521Z,100858.00
2022-12-20T19:09:44.310Z,100864.72
2022-12-20T19:12:11.821Z,100858.09
2022-12-20T19:14:39.227Z,100864.25
2022-12-20T19:17:06.849Z,100869.06
2022-12-20T19:19:34.327Z,100862.00
2022-12-20T19:22:02.034Z,100864.81
2022-12-20T19:24:29.481Z,100863.50
2022-12-20T19:26:58.613Z,100863.34
2022-12-20T19:29:26.058Z,100863.88
2022-12-20T19:31:53.436Z,100854.72
2022-12-20T19:34:20.828Z,100865.72
2022-12-20T19:36:48.483Z,100853.41
2022-12-20T19:39:18.009Z,100859.44
2022-12-20T19:41:59.831Z,100867.09
2022-12-20T19:44:34.387Z,100866.16
2022-12-20T19:47:04.849Z,100876.53
2022-12-20T19:49:32.309Z,100873.44
2022-12-20T19:51:59.807Z,100860.97
2022-12-20T19:54:27.437Z,100863.75
2022-12-20T19:56:54.847Z,100864.69
2022-12-20T19:59:22.325Z,100856.00
2022-12-20T20:01:51.415Z,100845.50
2022-12-20T20:04:18.901Z,100845.63
2022-12-20T20:06:46.303Z,100837.88
2022-12-20T20:09:13.713Z,100838.78
2022-12-20T20:11:41.166Z,100845.78
2022-12-20T20:14:10.151Z,100851.66
2022-12-20T20:16:37.840Z,100849.34
2022-12-20T20:19:06.887Z,100843.88
2022-12-20T20:21:36.327Z,100839.06
2022-12-20T20:24:03.833Z,100835.66
2022-12-20T20:26:31.866Z,100842.50
2022-12-20T20:29:01.387Z,100831.88
2022-12-20T20:31:29.439Z,100829.50
2022-12-20T20:33:58.203Z,100831.22
2022-12-20T20:36:27.031Z,100839.69
2022-12-20T20:38:54.459Z,100832.75
2022-12-20T20:41:22.613Z,100837.69
2022-12-20T20:43:50.252Z,100832.69
2022-12-20T20:46:18.780Z,100836.31
2022-12-20T20:48:46.604Z,100833.59
2022-12-20T20:51:14.635Z,100819.28
2022-12-20T20:53:43.615Z,100832.31
2022-12-20T20:56:11.680Z,100836.78
2022-12-20T20:58:39.443Z,100834.97
2022-12-20T21:01:09.307Z,100834.59
2022-12-20T21:03:38.047Z,100831.19
2022-12-20T21:06:39.174Z,100837.06
2022-12-20T21:08:56.155Z,100832.56
2022-12-20T21:11:24.419Z,100824.88
2022-12-20T21:13:53.976Z,100823.16
2022-12-20T21:16:22.478Z,100814.47
2022-12-20T21:18:51.692Z,100816.28
2022-12-20T21:21:20.218Z,100825.00
2022-12-20T21:23:48.307Z,100822.84
2022-12-20T21:26:18.452Z,100827.00
2022-12-20T21:28:46.000Z,100827.19
2022-12-20T21:31:14.991Z,100826.28
2022-12-20T21:33:42.882Z,100814.91
2022-12-20T21:36:14.390Z,100821.38
2022-12-20T21:38:42.486Z,100818.94
2022-12-20T21:41:13.246Z,100806.63
2022-12-20T21:43:42.099Z,100814.47
2022-12-20T21:46:11.279Z,100806.63
2022-12-20T21:48:39.309Z,100818.81
2022-12-20T21:51:10.007Z,100813.75
2022-12-20T21:53:42.198Z,100806.00
2022-12-20T21:56:09.767Z,100804.03
2022-12-20T21:58:37.464Z,100794.81
2022-12-20T22:01:07.983Z,100812.50
2022-12-20T22:03:36.752Z,100802.84
2022-12-20T22:06:05.169Z,100805.00
2022-12-20T22:08:33.259Z,100807.53
2022-12-20T22:11:01.992Z,100807.31
2022-12-20T22:13:33.235Z,100806.56
2022-12-20T22:16:08.234Z,100806.28
2022-12-20T22:18:36.603Z,100803.84
2022-12-20T22:21:04.600Z,100811.78
2022-12-20T22:23:32.458Z,100807.53
2022-12-20T22:26:02.575Z,100811.66
2022-12-20T22:28:30.382Z,100791.44
2022-12-20T22:30:57.846Z,100801.28
2022-12-20T22:33:26.551Z,100788.59
2022-12-20T22:35:53.986Z,100789.66
2022-12-20T22:38:21.395Z,100786.09
2022-12-20T22:40:48.772Z,100791.50
2022-12-20T22:43:16.192Z,100796.91
2022-12-20T22:45:43.690Z,100783.19
2022-12-20T22:48:11.185Z,100789.44
2022-12-20T22:50:39.932Z,100792.13
2022-12-20T22:53:07.415Z,100778.34
2022-12-20T22:55:35.541Z,100774.88
2022-12-20T22:58:03.186Z,100781.81
2022-12-20T23:00:30.713Z,100781.84
2022-12-20T23:02:58.300Z,100770.69
2022-12-20T23:05:25.975Z,100772.53
2022-12-20T23:07:54.833Z,100777.72
2022-12-20T23:10:39.717Z,100772.84
2022-12-20T23:13:24.922Z,100782.81
2022-12-20T23:15:52.542Z,100770.88
2022-12-20T23:18:20.038Z,100781.50
2022-12-20T23:21:07.469Z,100786.78
2022-12-20T23:23:36.227Z,100773.34
2022-12-20T23:26:10.146Z,100783.13
2022-12-20T23:28:37.769Z,100781.94
2022-12-20T23:31:05.946Z,100778.59
2022-12-20T23:33:33.602Z,100776.31
2022-12-20T23:36:02.867Z,100781.78
2022-12-20T23:38:32.300Z,100770.66
2022-12-20T23:41:01.323Z,100771.28
2022-12-20T23:43:30.580Z,100770.84
2022-12-20T23:46:03.502Z,100762.88
2022-12-20T23:48:31.026Z,100755.66
2022-12-20T23:50:59.329Z,100755.22
2022-12-20T23:53:27.321Z,100754.22
2022-12-20T23:56:05.210Z,100755.56
2022-12-20T23:58:32.788Z,100745.34
